createdAt,value
2023-01-17T00:00:03.794Z,58.09
2023-01-17T00:02:34.674Z,58.57
2023-01-17T00:05:23.642Z,57.87
2023-01-17T00:08:11.956Z,58.28
2023-01-17T00:10:42.614Z,56.60
2023-01-17T00:13:14.279Z,57.81
2023-01-17T00:15:45.145Z,58.63
2023-01-17T00:18:17.841Z,58.42
2023-01-17T00:21:06.969Z,59.72
2023-01-17T00:23:55.450Z,59.34
2023-01-17T00:26:26.102Z,59.30
2023-01-17T00:28:56.810Z,59.42
2023-01-17T00:31:27.763Z,58.24
2023-01-17T00:34:06.557Z,59.72
2023-01-17T00:36:36.615Z,58.43
2023-01-17T00:39:06.471Z,59.83
2023-01-17T00:41:36.429Z,60.05
2023-01-17T00:44:24.545Z,61.97
2023-01-17T00:47:12.552Z,60.36
2023-01-17T00:50:00.937Z,60.67
2023-01-17T00:52:49.236Z,62.70
2023-01-17T00:55:37.572Z,61.38
2023-01-17T00:58:27.343Z,60.41
2023-01-17T01:01:17.244Z,63.18
2023-01-17T01:04:05.564Z,61.97
2023-01-17T01:06:53.906Z,59.17
2023-01-17T01:09:42.779Z,58.31
2023-01-17T01:12:31.434Z,59.09
2023-01-17T01:15:19.599Z,59.21
2023-01-17T01:18:07.988Z,60.79
2023-01-17T01:20:56.928Z,59.81
2023-01-17T01:23:45.333Z,58.47
2023-01-17T01:26:34.622Z,57.76
2023-01-17T01:29:22.936Z,60.47
2023-01-17T01:32:11.326Z,57.84
2023-01-17T01:34:41.901Z,59.67
2023-01-17T01:37:12.449Z,59.49
2023-01-17T01:39:42.957Z,59.19
2023-01-17T01:42:17.173Z,57.81
2023-01-17T01:44:55.535Z,61.40
2023-01-17T01:47:34.310Z,61.41
2023-01-17T01:50:10.253Z,63.40
2023-01-17T01:52:43.891Z,61.11
2023-01-17T01:55:20.277Z,59.79
2023-01-17T01:57:53.740Z,58.69
2023-01-17T02:00:27.268Z,61.10
2023-01-17T02:03:01.273Z,58.94
2023-01-17T02:05:33.275Z,59.56
2023-01-17T02:08:07.959Z,59.81
2023-01-17T02:10:41.016Z,61.25
2023-01-17T02:13:12.988Z,60.57
2023-01-17T02:15:49.378Z,60.33
2023-01-17T02:18:43.854Z,62.26
2023-01-17T02:21:26.294Z,58.88
2023-01-17T02:24:34.176Z,60.28
2023-01-17T02:27:07.937Z,59.70
2023-01-17T02:29:41.410Z,65.03
2023-01-17T02:32:17.543Z,60.18
2023-01-17T02:34:50.794Z,61.47
2023-01-17T02:37:34.940Z,62.52
2023-01-17T02:40:08.430Z,62.61
2023-01-17T02:42:47.771Z,60.95
2023-01-17T02:45:20.454Z,63.12
2023-01-17T02:47:51.012Z,60.62
2023-01-17T02:50:24.449Z,60.42
2023-01-17T02:53:12.608Z,59.82
2023-01-17T02:55:59.227Z,65.87
2023-01-17T02:58:35.484Z,62.11
2023-01-17T03:01:18.179Z,63.77
2023-01-17T03:04:03.967Z,60.29
2023-01-17T03:06:49.270Z,64.15
2023-01-17T03:09:22.819Z,65.10
2023-01-17T03:11:54.194Z,63.52
2023-01-17T03:14:24.726Z,63.42
2023-01-17T03:16:55.477Z,63.24
2023-01-17T03:19:26.068Z,64.80
2023-01-17T03:21:56.673Z,70.67
2023-01-17T03:24:27.229Z,71.31
2023-01-17T03:26:57.785Z,73.30
2023-01-17T03:29:28.375Z,71.05
2023-01-17T03:31:58.987Z,69.74
2023-01-17T03:34:29.672Z,76.87
2023-01-17T03:37:00.248Z,76.13
2023-01-17T03:39:31.932Z,78.37
2023-01-17T03:42:02.481Z,72.86
2023-01-17T03:44:34.388Z,83.44
2023-01-17T03:47:05.213Z,71.90
2023-01-17T03:49:35.771Z,73.10
2023-01-17T03:52:06.753Z,74.19
2023-01-17T03:54:37.298Z,72.66
2023-01-17T03:57:08.713Z,66.88
2023-01-17T03:59:39.266Z,77.17
2023-01-17T04:02:09.960Z,70.09
2023-01-17T04:04:40.552Z,75.60
2023-01-17T04:07:11.133Z,72.81
2023-01-17T04:09:41.719Z,71.01
2023-01-17T04:12:12.264Z,68.49
2023-01-17T04:14:42.821Z,75.06
2023-01-17T04:17:15.474Z,71.39
2023-01-17T04:19:46.415Z,73.67
2023-01-17T04:22:18.395Z,74.26
2023-01-17T04:24:49.007Z,71.72
2023-01-17T04:27:19.500Z,67.09
2023-01-17T04:29:50.093Z,69.79
2023-01-17T04:32:20.771Z,71.42
2023-01-17T04:34:51.349Z,75.23
2023-01-17T04:37:21.910Z,74.27
2023-01-17T04:39:53.493Z,86.22
2023-01-17T04:42:24.045Z,81.33
2023-01-17T04:44:54.628Z,80.39
2023-01-17T04:47:26.367Z,72.91
2023-01-17T04:49:57.116Z,83.03
2023-01-17T04:52:27.680Z,69.93
2023-01-17T04:54:58.253Z,73.86
2023-01-17T04:57:28.980Z,70.35
2023-01-17T05:00:01.045Z,74.53
2023-01-17T05:02:31.800Z,73.43
2023-01-17T05:05:02.445Z,74.24
2023-01-17T05:07:35.682Z,69.47
2023-01-17T05:10:06.351Z,67.28
2023-01-17T05:12:37.193Z,66.62
2023-01-17T05:15:08.630Z,65.61
2023-01-17T05:17:39.155Z,68.59
2023-01-17T05:20:11.765Z,68.97
2023-01-17T05:22:42.304Z,70.40
2023-01-17T05:25:13.423Z,69.92
2023-01-17T05:27:45.053Z,70.73
2023-01-17T05:30:15.832Z,70.01
2023-01-17T05:32:54.159Z,66.41
2023-01-17T05:35:27.581Z,64.73
2023-01-17T05:37:58.300Z,62.42
2023-01-17T05:40:31.539Z,67.91
2023-01-17T05:43:04.652Z,65.76
2023-01-17T05:45:35.451Z,67.03
2023-01-17T05:48:06.788Z,67.15
2023-01-17T05:50:39.152Z,64.50
2023-01-17T05:53:12.544Z,65.60
2023-01-17T05:55:43.911Z,61.65
2023-01-17T05:58:17.749Z,61.55
2023-01-17T06:00:48.818Z,65.86
2023-01-17T06:03:19.537Z,62.18
2023-01-17T06:05:50.364Z,62.24
2023-01-17T06:08:21.894Z,61.20
2023-01-17T06:10:52.914Z,61.07
2023-01-17T06:13:24.500Z,61.21
2023-01-17T06:15:56.639Z,63.02
2023-01-17T06:18:27.607Z,62.50
2023-01-17T06:20:58.397Z,62.74
2023-01-17T06:23:30.024Z,64.48
2023-01-17T06:26:04.143Z,60.40
2023-01-17T06:28:34.703Z,62.69
2023-01-17T06:31:09.846Z,63.00
2023-01-17T06:33:40.478Z,60.07
2023-01-17T06:36:11.247Z,60.04
2023-01-17T06:38:41.793Z,60.08
2023-01-17T06:41:12.537Z,60.96
2023-01-17T06:43:43.065Z,62.33
2023-01-17T06:46:13.606Z,60.46
2023-01-17T06:48:44.232Z,62.82
2023-01-17T06:51:15.075Z,63.92
2023-01-17T06:53:45.655Z,63.63
2023-01-17T06:56:16.237Z,62.37
2023-01-17T06:58:51.353Z,62.57
2023-01-17T07:01:21.982Z,64.89
2023-01-17T07:03:54.231Z,66.22
2023-01-17T07:06:26.386Z,59.71
2023-01-17T07:08:59.157Z,63.58
2023-01-17T07:11:29.738Z,62.82
2023-01-17T07:14:01.403Z,60.48
2023-01-17T07:16:32.244Z,61.81
2023-01-17T07:19:02.921Z,64.10
2023-01-17T07:21:33.468Z,63.47
2023-01-17T07:24:04.001Z,64.68
2023-01-17T07:26:34.720Z,62.63
2023-01-17T07:29:06.899Z,59.79
2023-01-17T07:31:43.127Z,60.25
2023-01-17T07:34:13.704Z,60.00
2023-01-17T07:36:44.281Z,65.61
2023-01-17T07:39:14.898Z,65.29
2023-01-17T07:41:45.502Z,63.65
2023-01-17T07:44:16.441Z,60.33
2023-01-17T07:46:47.045Z,62.15
2023-01-17T07:49:17.647Z,62.91
2023-01-17T07:51:51.393Z,60.15
2023-01-17T07:54:21.929Z,63.65
2023-01-17T07:56:52.522Z,62.76
2023-01-17T07:59:23.107Z,62.51
2023-01-17T08:01:54.247Z,63.43
2023-01-17T08:04:27.282Z,64.05
2023-01-17T08:06:59.405Z,66.57
2023-01-17T08:09:29.949Z,66.68
2023-01-17T08:12:01.625Z,68.34
2023-01-17T08:14:32.156Z,64.05
2023-01-17T08:17:14.652Z,63.12
2023-01-17T08:19:45.438Z,62.92
2023-01-17T08:22:16.027Z,63.92
2023-01-17T08:24:46.596Z,64.92
2023-01-17T08:27:17.125Z,65.83
2023-01-17T08:29:48.596Z,64.67
2023-01-17T08:32:20.065Z,64.03
2023-01-17T08:34:50.615Z,64.76
2023-01-17T08:37:21.146Z,64.74
2023-01-17T08:39:51.709Z,61.53
2023-01-17T08:42:22.347Z,58.74
2023-01-17T08:44:52.894Z,58.57
2023-01-17T08:47:23.553Z,63.96
2023-01-17T08:49:54.420Z,62.66
2023-01-17T08:52:25.022Z,63.73
2023-01-17T08:54:55.815Z,68.30
2023-01-17T08:57:26.373Z,66.74
2023-01-17T08:59:57.292Z,63.31
2023-01-17T09:02:27.815Z,63.95
2023-01-17T09:04:58.401Z,66.99
2023-01-17T09:07:29.156Z,66.13
2023-01-17T09:09:59.715Z,65.87
2023-01-17T09:12:36.405Z,68.53
2023-01-17T09:15:08.748Z,66.46
2023-01-17T09:17:39.328Z,67.29
2023-01-17T09:20:10.783Z,63.15
2023-01-17T09:22:41.333Z,60.13
2023-01-17T09:25:11.956Z,61.34
2023-01-17T09:27:43.909Z,63.88
2023-01-17T09:30:16.135Z,63.58
2023-01-17T09:32:48.010Z,62.80
2023-01-17T09:35:18.572Z,56.06
2023-01-17T09:37:54.929Z,61.48
2023-01-17T09:40:26.784Z,63.11
2023-01-17T09:43:01.657Z,64.87
2023-01-17T09:45:34.614Z,60.56
2023-01-17T09:48:08.119Z,59.77
2023-01-17T09:50:47.486Z,58.93
2023-01-17T09:53:23.344Z,59.03
2023-01-17T09:56:02.440Z,60.10
2023-01-17T09:58:53.849Z,60.56
2023-01-17T10:01:33.615Z,60.85
2023-01-17T10:04:18.386Z,59.89
2023-01-17T10:07:25.852Z,56.12
2023-01-17T10:10:01.965Z,52.62
2023-01-17T10:12:41.127Z,55.71
2023-01-17T10:15:34.104Z,55.49
2023-01-17T10:18:29.935Z,58.38
2023-01-17T10:21:08.681Z,57.98
2023-01-17T10:23:44.630Z,55.04
2023-01-17T10:26:27.076Z,55.93
2023-01-17T10:29:06.408Z,53.86
2023-01-17T10:31:42.390Z,56.54
2023-01-17T10:34:18.752Z,55.01
2023-01-17T10:36:52.526Z,53.60
2023-01-17T10:39:26.677Z,53.35
2023-01-17T10:42:05.848Z,54.18
2023-01-17T10:44:41.936Z,53.83
2023-01-17T10:47:15.278Z,52.21
2023-01-17T10:49:53.101Z,52.85
2023-01-17T10:52:32.293Z,51.92
2023-01-17T10:55:17.844Z,52.03
2023-01-17T10:57:49.979Z,51.24
2023-01-17T11:00:26.046Z,52.73
2023-01-17T11:02:56.934Z,51.73
2023-01-17T11:05:33.137Z,50.65
2023-01-17T11:08:06.558Z,48.78
2023-01-17T11:10:42.673Z,47.99
2023-01-17T11:13:28.585Z,46.76
2023-01-17T11:16:07.873Z,46.76
2023-01-17T11:18:42.975Z,43.76
2023-01-17T11:21:26.215Z,46.52
2023-01-17T11:23:58.610Z,45.54
2023-01-17T11:26:34.391Z,44.46
2023-01-17T11:29:37.221Z,46.39
2023-01-17T11:32:26.718Z,45.88
2023-01-17T11:35:21.268Z,48.13
2023-01-17T11:38:11.890Z,46.74
2023-01-17T11:40:45.948Z,49.58
2023-01-17T11:43:27.713Z,49.58
2023-01-17T11:46:18.960Z,47.94
2023-01-17T11:49:00.267Z,49.68
2023-01-17T11:51:38.370Z,46.78
2023-01-17T11:54:21.029Z,47.41
2023-01-17T11:56:53.053Z,47.01
2023-01-17T11:59:26.752Z,46.67
2023-01-17T12:02:16.536Z,47.24
2023-01-17T12:05:08.143Z,46.66
2023-01-17T12:08:02.061Z,46.17
2023-01-17T12:10:44.383Z,46.95
2023-01-17T12:13:54.914Z,44.48
2023-01-17T12:17:02.706Z,45.37
2023-01-17T12:19:43.701Z,42.88
2023-01-17T12:22:35.271Z,42.23
2023-01-17T12:25:28.385Z,43.46
2023-01-17T12:28:11.500Z,43.45
2023-01-17T12:31:09.488Z,42.89
2023-01-17T12:34:00.083Z,42.96
2023-01-17T12:36:54.499Z,43.45
2023-01-17T12:39:29.003Z,44.11
2023-01-17T12:42:13.033Z,45.05
2023-01-17T12:44:51.082Z,45.00
2023-01-17T12:47:22.941Z,45.26
2023-01-17T12:50:20.160Z,45.90
2023-01-17T12:53:02.369Z,46.03
2023-01-17T12:55:38.763Z,45.70
2023-01-17T12:58:12.118Z,45.41
2023-01-17T13:00:45.529Z,47.53
2023-01-17T13:03:44.674Z,47.29
2023-01-17T13:06:18.027Z,44.55
2023-01-17T13:08:51.399Z,44.33
2023-01-17T13:11:28.754Z,45.77
2023-01-17T13:14:00.055Z,44.20
2023-01-17T13:17:00.696Z,43.39
2023-01-17T13:19:49.158Z,45.07
2023-01-17T13:22:24.252Z,42.83
2023-01-17T13:25:14.995Z,44.46
2023-01-17T13:28:06.194Z,45.60
2023-01-17T13:30:56.178Z,43.65
2023-01-17T13:33:38.422Z,45.15
2023-01-17T13:36:40.223Z,45.86
2023-01-17T13:39:29.873Z,44.33
2023-01-17T13:42:37.709Z,46.61
2023-01-17T13:45:21.267Z,45.96
2023-01-17T13:47:52.876Z,44.56
2023-01-17T13:50:41.227Z,46.05
2023-01-17T13:53:39.887Z,44.41
2023-01-17T13:56:26.325Z,44.48
2023-01-17T13:58:59.480Z,43.52
2023-01-17T14:01:43.353Z,42.73
2023-01-17T14:04:14.415Z,43.42
2023-01-17T14:06:49.095Z,44.95
2023-01-17T14:09:29.267Z,44.23
2023-01-17T14:12:08.309Z,43.29
2023-01-17T14:14:44.585Z,44.54
2023-01-17T14:17:25.028Z,44.55
2023-01-17T14:19:59.985Z,45.15
2023-01-17T14:22:34.659Z,43.41
2023-01-17T14:25:17.790Z,45.31
2023-01-17T14:27:51.525Z,45.35
2023-01-17T14:30:30.918Z,43.69
2023-01-17T14:33:08.464Z,43.28
2023-01-17T14:35:42.012Z,44.24
2023-01-17T14:38:31.819Z,44.27
2023-01-17T14:41:14.087Z,43.55
2023-01-17T14:43:45.632Z,41.51
2023-01-17T14:46:21.687Z,40.96
2023-01-17T14:48:55.398Z,42.24
2023-01-17T14:51:25.977Z,42.64
2023-01-17T14:54:02.656Z,43.09
2023-01-17T14:56:33.894Z,41.23
2023-01-17T14:59:18.415Z,43.29
2023-01-17T15:02:07.666Z,43.71
2023-01-17T15:04:34.222Z,42.24
2023-01-17T15:07:05.387Z,42.81
2023-01-17T15:09:38.503Z,43.28
2023-01-17T15:12:13.959Z,42.81
2023-01-17T15:14:48.240Z,43.97
2023-01-17T15:17:27.537Z,43.95
2023-01-17T15:20:01.666Z,43.91
2023-01-17T15:22:32.246Z,43.95
2023-01-17T15:25:03.375Z,44.89
2023-01-17T15:27:34.230Z,45.64
2023-01-17T15:30:07.215Z,45.87
2023-01-17T15:32:38.104Z,46.96
2023-01-17T15:35:10.216Z,45.34
2023-01-17T15:37:41.904Z,46.80
2023-01-17T15:40:21.087Z,46.36
2023-01-17T15:43:01.924Z,46.13
2023-01-17T15:45:34.269Z,45.25
2023-01-17T15:48:27.273Z,45.63
2023-01-17T15:51:00.691Z,45.08
2023-01-17T15:53:33.492Z,45.86
2023-01-17T15:56:24.983Z,45.20
2023-01-17T15:58:56.890Z,45.68
2023-01-17T16:01:29.578Z,45.96
2023-01-17T16:04:00.127Z,45.19
2023-01-17T16:06:42.952Z,43.29
2023-01-17T16:09:24.461Z,42.42
2023-01-17T16:11:54.915Z,45.65
2023-01-17T16:14:26.570Z,44.74
2023-01-17T16:16:57.972Z,43.36
2023-01-17T16:19:28.486Z,43.27
2023-01-17T16:22:00.497Z,45.20
2023-01-17T16:24:32.464Z,45.15
2023-01-17T16:27:04.585Z,46.06
2023-01-17T16:29:36.245Z,46.58
2023-01-17T16:32:08.596Z,45.64
2023-01-17T16:34:40.290Z,45.18
2023-01-17T16:37:12.240Z,45.46
2023-01-17T16:39:42.690Z,45.77
2023-01-17T16:42:13.591Z,45.96
2023-01-17T16:44:44.103Z,46.17
2023-01-17T16:47:14.580Z,45.76
2023-01-17T16:49:45.207Z,45.56
2023-01-17T16:52:15.771Z,44.82
2023-01-17T16:54:46.308Z,44.32
2023-01-17T16:57:17.216Z,46.97
2023-01-17T16:59:50.797Z,47.05
2023-01-17T17:02:21.396Z,45.80
2023-01-17T17:04:53.516Z,46.37
2023-01-17T17:07:24.194Z,45.68
2023-01-17T17:09:54.719Z,46.56
2023-01-17T17:12:25.464Z,47.14
2023-01-17T17:14:55.985Z,46.98
2023-01-17T17:17:27.473Z,46.21
2023-01-17T17:19:58.084Z,46.87
2023-01-17T17:22:28.630Z,45.65
2023-01-17T17:24:59.190Z,46.93
2023-01-17T17:27:29.758Z,45.96
2023-01-17T17:30:00.430Z,45.96
2023-01-17T17:32:31.583Z,45.49
2023-01-17T17:35:02.260Z,45.37
2023-01-17T17:37:34.566Z,45.12
2023-01-17T17:40:07.246Z,46.03
2023-01-17T17:42:37.695Z,46.31
2023-01-17T17:45:08.471Z,47.28
2023-01-17T17:47:38.955Z,46.44
2023-01-17T17:50:10.570Z,46.88
2023-01-17T17:52:41.234Z,46.51
2023-01-17T17:55:13.287Z,44.51
2023-01-17T17:57:43.887Z,46.66
2023-01-17T18:00:15.082Z,46.50
2023-01-17T18:02:48.668Z,46.71
2023-01-17T18:05:19.304Z,46.59
2023-01-17T18:07:51.100Z,45.34
2023-01-17T18:10:21.821Z,46.24
2023-01-17T18:12:52.338Z,46.49
2023-01-17T18:15:24.290Z,46.12
2023-01-17T18:17:56.188Z,45.88
2023-01-17T18:20:29.280Z,46.30
2023-01-17T18:22:59.783Z,44.67
2023-01-17T18:25:30.277Z,45.50
2023-01-17T18:28:00.853Z,46.20
2023-01-17T18:30:33.983Z,44.10
2023-01-17T18:33:04.506Z,45.72
2023-01-17T18:35:34.996Z,43.12
2023-01-17T18:38:05.580Z,42.61
2023-01-17T18:40:36.667Z,43.03
2023-01-17T18:43:07.192Z,44.00
2023-01-17T18:45:38.778Z,44.10
2023-01-17T18:48:09.411Z,43.41
2023-01-17T18:50:39.905Z,44.39
2023-01-17T18:53:11.936Z,43.14
2023-01-17T18:55:42.564Z,44.19
2023-01-17T18:58:13.159Z,44.32
2023-01-17T19:00:43.783Z,42.78
2023-01-17T19:03:14.428Z,42.74
2023-01-17T19:05:47.116Z,42.50
2023-01-17T19:08:18.158Z,43.73
2023-01-17T19:10:51.203Z,43.50
2023-01-17T19:13:21.837Z,43.38
2023-01-17T19:15:53.053Z,43.07
2023-01-17T19:18:28.624Z,45.24
2023-01-17T19:21:10.797Z,45.33
2023-01-17T19:23:41.591Z,44.14
2023-01-17T19:26:14.282Z,44.87
2023-01-17T19:28:47.387Z,45.05
2023-01-17T19:31:23.803Z,43.42
2023-01-17T19:33:57.698Z,41.58
2023-01-17T19:36:31.260Z,42.56
2023-01-17T19:39:05.703Z,42.24
2023-01-17T19:41:36.985Z,43.59
2023-01-17T19:44:09.875Z,43.35
2023-01-17T19:46:41.631Z,43.72
2023-01-17T19:49:12.329Z,45.43
2023-01-17T19:51:43.879Z,43.22
2023-01-17T19:54:15.273Z,43.22
2023-01-17T19:56:45.884Z,42.80
2023-01-17T19:59:16.510Z,43.62
2023-01-17T20:01:49.045Z,43.00
2023-01-17T20:04:19.673Z,43.33
2023-01-17T20:06:50.354Z,43.80
2023-01-17T20:09:20.916Z,43.33
2023-01-17T20:11:51.473Z,42.33
2023-01-17T20:14:23.132Z,43.50
2023-01-17T20:16:53.964Z,44.10
2023-01-17T20:19:24.524Z,43.33
2023-01-17T20:21:56.203Z,43.87
2023-01-17T20:24:26.778Z,43.90
2023-01-17T20:26:58.144Z,42.89
2023-01-17T20:29:28.688Z,41.51
2023-01-17T20:31:59.288Z,41.55
2023-01-17T20:34:31.887Z,42.59
2023-01-17T20:37:02.551Z,42.58
2023-01-17T20:39:33.082Z,43.31
2023-01-17T20:42:04.777Z,44.09
2023-01-17T20:44:35.327Z,44.23
2023-01-17T20:47:06.738Z,43.87
2023-01-17T20:49:37.247Z,45.05
2023-01-17T20:52:08.089Z,44.41
2023-01-17T20:54:38.651Z,44.65
2023-01-17T20:57:09.240Z,45.12
2023-01-17T20:59:39.760Z,45.32
2023-01-17T21:02:12.805Z,44.18
2023-01-17T21:04:45.076Z,44.45
2023-01-17T21:07:15.669Z,42.84
2023-01-17T21:09:46.313Z,41.94
2023-01-17T21:12:17.126Z,41.69
2023-01-17T21:14:47.695Z,41.61
2023-01-17T21:17:19.431Z,41.72
2023-01-17T21:19:50.029Z,41.74
2023-01-17T21:22:20.618Z,41.73
2023-01-17T21:24:51.284Z,42.11
2023-01-17T21:27:22.972Z,41.83
2023-01-17T21:29:56.066Z,42.68
2023-01-17T21:32:28.154Z,42.99
2023-01-17T21:34:58.740Z,43.22
2023-01-17T21:37:29.262Z,42.48
2023-01-17T21:40:00.400Z,42.89
2023-01-17T21:45:01.998Z,43.26
2023-01-17T21:47:32.627Z,43.06
2023-01-17T21:50:03.283Z,44.11
2023-01-17T21:52:33.811Z,44.62
2023-01-17T21:55:22.431Z,44.78
2023-01-17T21:58:10.621Z,44.33
2023-01-17T22:00:45.779Z,43.89
2023-01-17T22:03:16.323Z,44.28
2023-01-17T22:05:46.877Z,44.10
2023-01-17T22:08:17.437Z,44.81
2023-01-17T22:10:48.291Z,44.01
2023-01-17T22:13:20.431Z,43.71
2023-01-17T22:15:59.133Z,44.40
2023-01-17T22:18:31.473Z,44.22
2023-01-17T22:21:07.479Z,44.96
2023-01-17T22:23:38.743Z,43.86
2023-01-17T22:26:11.056Z,43.40
2023-01-17T22:28:43.300Z,43.14
2023-01-17T22:31:20.941Z,43.29
2023-01-17T22:33:57.590Z,42.97
2023-01-17T22:36:29.354Z,43.26
2023-01-17T22:39:00.043Z,43.46
2023-01-17T22:41:32.928Z,43.32
2023-01-17T22:44:05.632Z,43.34
2023-01-17T22:46:41.606Z,43.13
2023-01-17T22:49:15.922Z,43.49
2023-01-17T22:51:46.459Z,43.59
2023-01-17T22:54:17.492Z,43.58
2023-01-17T22:56:49.221Z,43.74
2023-01-17T22:59:19.782Z,43.31
2023-01-17T23:01:50.319Z,43.76
2023-01-17T23:04:20.836Z,44.49
2023-01-17T23:06:51.498Z,43.86
2023-01-17T23:09:22.155Z,44.32
2023-01-17T23:11:55.304Z,44.99
2023-01-17T23:14:54.875Z,44.86
2023-01-17T23:17:43.828Z,45.13
2023-01-17T23:20:14.930Z,44.99
2023-01-17T23:22:45.810Z,45.08
2023-01-17T23:25:16.536Z,45.29
2023-01-17T23:28:06.335Z,46.07
2023-01-17T23:30:40.280Z,46.22
2023-01-17T23:33:12.988Z,45.17
2023-01-17T23:35:47.213Z,46.13
2023-01-17T23:38:31.325Z,45.15
2023-01-17T23:41:22.324Z,45.12
2023-01-17T23:43:57.885Z,45.41
2023-01-17T23:46:30.327Z,45.45
2023-01-17T23:49:00.944Z,45.13
2023-01-17T23:51:31.564Z,45.94
2023-01-17T23:54:03.673Z,45.23
2023-01-17T23:56:34.157Z,45.56
2023-01-17T23:59:04.661Z,45.24
